Time;durP1;ratioP1;P1;durP2;ratioP2;P2;SDS_P1;SDS_P2;PMS_P1;PMS_P2;Temp;Humidity;BMP_temperature;BMP_pressure;BME280_temperature;BME280_humidity;BME280_pressure;Samples;Min_cycle;Max_cycle;Signal;HPM_P1;HPM_P2
2023/08/10 00:01:05;;;;;;;8.43;2.83;;;16.40;99.90;;;;;;5081677;28;20145;-83
2023/08/10 00:03:32;;;;;;;7.38;2.63;;;16.40;99.90;;;;;;5054045;28;20337;-84
2023/08/10 00:06:00;;;;;;;7.30;2.80;;;16.40;99.90;;;;;;5081989;28;20067;-83
2023/08/10 00:08:27;;;;;;;6.90;2.53;;;16.40;99.90;;;;;;5083497;28;20120;-83
2023/08/10 00:10:55;;;;;;;6.03;2.28;;;16.40;99.90;;;;;;5054049;28;20041;-82
2023/08/10 00:13:22;;;;;;;6.93;2.88;;;16.40;99.90;;;;;;5053832;28;20064;-84
2023/08/10 00:15:48;;;;;;;6.63;2.60;;;16.30;99.90;;;;;;5080870;28;20436;-83
2023/08/10 00:18:15;;;;;;;6.57;2.55;;;16.20;99.90;;;;;;5053887;28;20041;-83
2023/08/10 00:20:42;;;;;;;6.68;2.63;;;16.20;99.90;;;;;;5066763;28;20482;-82
2023/08/10 00:23:09;;;;;;;6.40;2.42;;;16.10;99.90;;;;;;5071664;28;20120;-82
2023/08/10 00:25:35;;;;;;;6.13;2.45;;;16.10;99.90;;;;;;5088384;28;20059;-82
2023/08/10 00:28:04;;;;;;;7.03;2.42;;;16.10;99.90;;;;;;5075665;28;20051;-83
2023/08/10 00:30:31;;;;;;;6.82;2.38;;;16.10;99.90;;;;;;5053901;28;20044;-83
2023/08/10 00:32:58;;;;;;;6.03;2.50;;;16.00;99.90;;;;;;5044244;28;20048;-83
2023/08/10 00:35:24;;;;;;;6.63;2.55;;;16.00;99.90;;;;;;5059550;28;20064;-82
2023/08/10 00:37:52;;;;;;;6.72;2.78;;;16.00;99.90;;;;;;5076938;28;20036;-83
2023/08/10 00:40:19;;;;;;;5.70;2.55;;;15.90;99.90;;;;;;5031446;28;20041;-82
2023/08/10 00:42:45;;;;;;;6.45;2.67;;;15.90;99.90;;;;;;5035643;28;20103;-82
2023/08/10 00:45:12;;;;;;;9.32;2.75;;;15.80;99.90;;;;;;5043706;28;20136;-82
2023/08/10 00:47:39;;;;;;;7.40;2.75;;;15.80;99.90;;;;;;5014056;28;20053;-82
2023/08/10 00:50:06;;;;;;;8.95;3.03;;;15.80;99.90;;;;;;5034946;28;20047;-83
2023/08/10 00:52:33;;;;;;;6.15;2.60;;;15.80;99.90;;;;;;5059785;28;20037;-81
2023/08/10 00:55:00;;;;;;;6.30;2.30;;;15.80;99.90;;;;;;5042236;28;20381;-82
2023/08/10 00:57:27;;;;;;;7.65;2.63;;;15.80;99.90;;;;;;5035033;28;20126;-82
2023/08/10 00:59:54;;;;;;;6.15;2.72;;;15.80;99.90;;;;;;5035873;28;20430;-83
2023/08/10 01:02:20;;;;;;;10.68;2.45;;;15.80;99.90;;;;;;5048739;28;20422;-82
2023/08/10 01:04:47;;;;;;;7.30;3.05;;;15.80;99.90;;;;;;5060240;28;20339;-82
2023/08/10 01:07:15;;;;;;;6.15;2.42;;;15.70;99.90;;;;;;5053864;28;20037;-83
2023/08/10 01:09:42;;;;;;;7.90;3.05;;;15.70;99.90;;;;;;5030934;28;20087;-83
2023/08/10 01:12:09;;;;;;;6.25;2.63;;;15.70;99.90;;;;;;5025466;28;20037;-82
2023/08/10 01:14:35;;;;;;;6.97;2.70;;;15.70;99.90;;;;;;5052353;28;20065;-83
2023/08/10 01:17:02;;;;;;;6.88;2.63;;;15.70;99.90;;;;;;5033850;28;20049;-83
2023/08/10 01:19:30;;;;;;;7.35;3.00;;;15.70;99.90;;;;;;5025034;28;20166;-82
2023/08/10 01:21:56;;;;;;;6.38;2.53;;;15.60;99.90;;;;;;5035673;28;20068;-81
2023/08/10 01:24:24;;;;;;;6.95;2.50;;;15.60;99.90;;;;;;5023960;28;20060;-82
2023/08/10 01:26:53;;;;;;;6.47;2.20;;;15.60;99.90;;;;;;5036156;28;20052;-83
2023/08/10 01:29:20;;;;;;;6.68;2.72;;;15.60;99.90;;;;;;5053293;28;20424;-82
2023/08/10 01:31:47;;;;;;;6.03;2.33;;;15.60;99.90;;;;;;5006394;28;20132;-82
2023/08/10 01:34:14;;;;;;;6.25;2.40;;;15.60;99.90;;;;;;5033822;28;20053;-82
2023/08/10 01:36:41;;;;;;;5.55;2.55;;;15.50;99.90;;;;;;5043527;28;20049;-83
2023/08/10 01:39:08;;;;;;;5.78;2.20;;;15.50;99.90;;;;;;5023187;28;20060;-82
2023/08/10 01:41:35;;;;;;;10.02;2.40;;;15.50;99.90;;;;;;5053080;28;20037;-82
2023/08/10 01:44:03;;;;;;;6.57;2.28;;;15.50;99.90;;;;;;5052870;28;20037;-82
2023/08/10 01:46:30;;;;;;;6.68;2.58;;;15.40;99.90;;;;;;5052205;28;20103;-83
2023/08/10 01:48:57;;;;;;;6.38;2.20;;;15.30;99.90;;;;;;5050005;28;20072;-83
2023/08/10 01:51:23;;;;;;;7.80;2.22;;;15.30;99.90;;;;;;5081506;28;20518;-83
2023/08/10 01:53:50;;;;;;;6.55;2.45;;;15.30;99.90;;;;;;5064809;28;20119;-83
2023/08/10 01:56:18;;;;;;;6.70;2.42;;;15.30;99.90;;;;;;5091861;28;20036;-83
2023/08/10 01:58:45;;;;;;;7.95;2.20;;;15.30;99.90;;;;;;5072831;28;20079;-82
2023/08/10 02:01:12;;;;;;;5.25;2.15;;;15.30;99.90;;;;;;5054533;28;20045;-83
2023/08/10 02:03:39;;;;;;;5.15;2.20;;;15.20;99.90;;;;;;5076227;28;20060;-82
2023/08/10 02:06:07;;;;;;;6.60;2.97;;;15.20;99.90;;;;;;5059036;28;20051;-83
2023/08/10 02:08:35;;;;;;;7.35;2.33;;;15.20;99.90;;;;;;5067223;28;20058;-83
2023/08/10 02:11:02;;;;;;;5.57;2.22;;;15.20;99.90;;;;;;5096512;28;20051;-83
2023/08/10 02:13:28;;;;;;;6.47;2.50;;;15.10;99.90;;;;;;5080491;28;20408;-82
2023/08/10 02:15:55;;;;;;;7.47;2.83;;;15.10;99.90;;;;;;5076222;28;20058;-81
2023/08/10 02:18:22;;;;;;;9.38;2.50;;;15.10;99.90;;;;;;5076354;28;20106;-81
2023/08/10 02:20:49;;;;;;;6.78;2.33;;;15.00;99.90;;;;;;5080303;28;20122;-82
2023/08/10 02:23:16;;;;;;;5.57;2.08;;;15.00;99.90;;;;;;5079432;28;20036;-81
2023/08/10 02:25:42;;;;;;;6.20;2.20;;;14.90;99.90;;;;;;5070464;28;20064;-82
2023/08/10 02:28:10;;;;;;;10.18;2.13;;;15.00;99.90;;;;;;5076821;28;20143;-84
2023/08/10 02:30:38;;;;;;;7.10;2.50;;;15.00;99.90;;;;;;5062945;28;20048;-82
2023/08/10 02:33:05;;;;;;;8.05;2.40;;;15.00;99.90;;;;;;5054895;28;20056;-83
2023/08/10 02:35:31;;;;;;;5.78;2.47;;;14.90;99.90;;;;;;5084034;28;20576;-82
2023/08/10 02:37:58;;;;;;;7.28;2.38;;;14.90;99.90;;;;;;5070930;28;20047;-83
2023/08/10 02:40:25;;;;;;;6.53;2.47;;;14.90;99.90;;;;;;5045147;28;20059;-82
2023/08/10 02:42:51;;;;;;;8.85;2.50;;;14.90;99.90;;;;;;5025098;28;20489;-82
2023/08/10 02:45:18;;;;;;;7.18;2.55;;;14.90;99.90;;;;;;5056718;28;20037;-82
2023/08/10 02:47:45;;;;;;;6.95;2.40;;;14.80;99.90;;;;;;5048758;28;20041;-82
2023/08/10 02:50:12;;;;;;;6.05;2.30;;;14.80;99.90;;;;;;5028926;28;20087;-82
2023/08/10 02:52:39;;;;;;;5.95;2.25;;;14.80;99.90;;;;;;5052033;28;20048;-83
2023/08/10 02:55:06;;;;;;;5.60;2.10;;;14.80;99.90;;;;;;5046963;28;20064;-81
2023/08/10 02:57:32;;;;;;;6.18;2.42;;;14.80;99.90;;;;;;5048170;28;20071;-82
2023/08/10 03:00:00;;;;;;;6.20;2.35;;;14.80;99.90;;;;;;5051534;28;20044;-83
2023/08/10 03:02:28;;;;;;;6.50;2.55;;;14.80;99.90;;;;;;5026200;28;20069;-83
2023/08/10 03:04:55;;;;;;;4.82;1.98;;;14.70;99.90;;;;;;5018636;28;20042;-83
2023/08/10 03:07:22;;;;;;;5.00;2.10;;;14.80;99.90;;;;;;5018072;28;20052;-83
2023/08/10 03:09:50;;;;;;;5.50;2.13;;;14.70;99.90;;;;;;5046739;28;20144;-82
2023/08/10 03:12:21;;;;;;;5.85;2.00;;;14.70;99.90;;;;;;5018966;28;20041;-83
2023/08/10 03:14:48;;;;;;;9.02;2.45;;;14.70;99.90;;;;;;5002745;28;20045;-83
2023/08/10 03:17:16;;;;;;;5.55;2.35;;;14.70;99.90;;;;;;5018854;28;20037;-82
2023/08/10 03:19:43;;;;;;;6.03;2.50;;;14.60;99.90;;;;;;5018154;28;20103;-82
2023/08/10 03:22:12;;;;;;;6.15;2.38;;;14.60;99.90;;;;;;5052543;28;20040;-82
2023/08/10 03:24:39;;;;;;;6.03;2.35;;;14.60;99.90;;;;;;5039095;28;20350;-83
2023/08/10 03:27:07;;;;;;;4.80;2.10;;;14.60;99.90;;;;;;5047269;28;20142;-83
2023/08/10 03:29:34;;;;;;;6.80;2.13;;;14.60;99.90;;;;;;5030735;28;20050;-83
2023/08/10 03:32:01;;;;;;;6.38;2.40;;;14.60;99.90;;;;;;5018620;28;20041;-82
2023/08/10 03:34:29;;;;;;;5.68;2.15;;;14.50;99.90;;;;;;5030083;28;20048;-82
2023/08/10 03:36:56;;;;;;;6.15;2.15;;;14.60;99.90;;;;;;5033186;28;20052;-82
2023/08/10 03:39:23;;;;;;;6.18;2.33;;;14.60;99.90;;;;;;5047162;28;20052;-82
2023/08/10 03:41:50;;;;;;;5.85;2.25;;;14.50;99.90;;;;;;5073303;28;20069;-82
2023/08/10 03:44:17;;;;;;;6.18;2.05;;;14.50;99.90;;;;;;5071500;28;20127;-82
2023/08/10 03:46:44;;;;;;;6.68;2.30;;;14.50;99.90;;;;;;5065669;28;20040;-83
2023/08/10 03:49:12;;;;;;;5.95;2.03;;;14.50;99.90;;;;;;5068512;28;20127;-81
2023/08/10 03:51:39;;;;;;;5.07;1.92;;;14.40;99.90;;;;;;5062030;28;20057;-82
2023/08/10 03:54:06;;;;;;;5.60;2.25;;;14.40;99.90;;;;;;5056546;28;20131;-82
2023/08/10 03:56:33;;;;;;;5.90;1.92;;;14.40;99.90;;;;;;5080399;28;20075;-81
2023/08/10 03:59:00;;;;;;;7.13;2.08;;;14.30;99.90;;;;;;5069122;28;20413;-83
2023/08/10 04:01:27;;;;;;;5.63;2.15;;;14.30;99.90;;;;;;5082791;28;20040;-83
2023/08/10 04:03:53;;;;;;;10.07;2.15;;;14.30;99.90;;;;;;5075369;28;20040;-81
2023/08/10 04:06:22;;;;;;;5.57;2.20;;;14.30;99.90;;;;;;5059889;28;20061;-81
2023/08/10 04:08:49;;;;;;;5.50;2.03;;;14.20;99.90;;;;;;5054160;28;20435;-82
2023/08/10 04:11:15;;;;;;;5.70;2.20;;;14.20;99.90;;;;;;5055499;28;20045;-82
2023/08/10 04:13:42;;;;;;;7.68;2.10;;;14.20;99.90;;;;;;5066572;28;20048;-82
2023/08/10 04:16:10;;;;;;;8.63;2.00;;;14.30;99.90;;;;;;5054972;28;20040;-83
2023/08/10 04:18:37;;;;;;;4.88;2.03;;;14.20;99.90;;;;;;5054754;28;20041;-83
2023/08/10 04:21:04;;;;;;;5.80;1.90;;;14.20;99.90;;;;;;5052819;28;20033;-82
2023/08/10 04:23:31;;;;;;;5.32;1.98;;;14.30;99.90;;;;;;5067784;28;20036;-82
2023/08/10 04:25:57;;;;;;;7.82;2.10;;;14.30;99.90;;;;;;5073445;28;20044;-83
2023/08/10 04:28:24;;;;;;;9.27;2.10;;;14.30;99.90;;;;;;5087142;28;20047;-83
2023/08/10 04:30:51;;;;;;;6.05;2.35;;;14.20;99.90;;;;;;5040179;28;20137;-83
2023/08/10 04:33:17;;;;;;;7.40;2.10;;;14.20;99.90;;;;;;5074829;28;20036;-82
2023/08/10 04:35:44;;;;;;;9.32;2.10;;;14.20;99.90;;;;;;5049093;28;20056;-82
2023/08/10 04:38:11;;;;;;;5.60;2.00;;;14.20;99.90;;;;;;5092823;28;20086;-82
2023/08/10 04:40:37;;;;;;;6.75;2.10;;;14.10;99.90;;;;;;5072167;28;20068;-84
2023/08/10 04:43:04;;;;;;;5.38;1.90;;;14.10;99.90;;;;;;5034421;28;20132;-82
2023/08/10 04:45:31;;;;;;;5.85;2.20;;;14.10;99.90;;;;;;5034240;28;20099;-82
2023/08/10 04:47:58;;;;;;;6.25;2.28;;;14.10;99.90;;;;;;5017546;28;20128;-83
2023/08/10 04:50:25;;;;;;;7.00;2.03;;;14.10;99.90;;;;;;5017657;28;20459;-83
2023/08/10 04:52:51;;;;;;;5.38;2.15;;;14.10;99.90;;;;;;5054899;28;20041;-83
2023/08/10 04:55:18;;;;;;;7.20;2.20;;;14.10;99.90;;;;;;5037394;28;20049;-83
2023/08/10 04:57:45;;;;;;;5.43;2.05;;;14.10;99.90;;;;;;5003140;28;20046;-83
2023/08/10 05:00:15;;;;;;;6.13;2.13;;;14.10;99.90;;;;;;5045511;28;20115;-82
2023/08/10 05:02:41;;;;;;;5.75;2.05;;;14.20;99.90;;;;;;5034244;28;20037;-83
2023/08/10 05:05:08;;;;;;;6.90;1.92;;;14.20;99.90;;;;;;5017022;28;20045;-83
2023/08/10 05:07:35;;;;;;;10.55;2.20;;;14.20;99.90;;;;;;5016474;28;20041;-83
2023/08/10 05:10:02;;;;;;;10.52;2.22;;;14.20;99.90;;;;;;5034671;28;20514;-83
2023/08/10 05:12:29;;;;;;;5.97;2.13;;;14.20;99.90;;;;;;5044872;28;20047;-83
2023/08/10 05:14:56;;;;;;;6.03;2.22;;;14.30;99.90;;;;;;5040777;28;20048;-82
2023/08/10 05:17:22;;;;;;;6.82;2.33;;;14.30;99.90;;;;;;5027935;28;20072;-84
2023/08/10 05:19:49;;;;;;;8.43;2.42;;;14.40;99.90;;;;;;5049908;28;20052;-82
2023/08/10 05:22:16;;;;;;;5.53;2.25;;;14.40;99.90;;;;;;5017099;28;20045;-84
2023/08/10 05:24:43;;;;;;;5.63;1.70;;;14.50;99.90;;;;;;5034008;28;20056;-83
2023/08/10 05:27:10;;;;;;;6.80;2.40;;;14.60;99.90;;;;;;5029822;28;20432;-84
2023/08/10 05:29:36;;;;;;;8.05;2.25;;;14.60;99.90;;;;;;5017344;28;20136;-84
2023/08/10 05:32:03;;;;;;;6.43;2.15;;;14.70;99.90;;;;;;5044916;28;20116;-84
2023/08/10 05:34:30;;;;;;;5.35;1.88;;;14.80;99.90;;;;;;5015673;28;20060;-84
2023/08/10 05:36:57;;;;;;;5.43;2.00;;;14.90;99.90;;;;;;5035248;28;20099;-82
2023/08/10 05:39:23;;;;;;;5.70;2.13;;;15.00;99.90;;;;;;5052203;28;20061;-84
2023/08/10 05:41:50;;;;;;;8.25;2.05;;;15.20;99.90;;;;;;5057848;28;20049;-82
2023/08/10 05:44:17;;;;;;;5.28;1.92;;;15.30;99.90;;;;;;5063724;28;20039;-83
2023/08/10 05:49:29;;;;;;;9.63;2.63;;;15.50;99.90;;;;;;5086682;28;20179;-83
2023/08/10 05:51:56;;;;;;;7.95;2.50;;;15.60;99.90;;;;;;5081241;28;20067;-82
2023/08/10 05:54:22;;;;;;;6.20;2.42;;;15.70;99.90;;;;;;5066203;28;20048;-84
2023/08/10 05:56:49;;;;;;;6.97;2.60;;;15.90;99.90;;;;;;5076603;28;20391;-83
2023/08/10 05:59:16;;;;;;;7.40;2.50;;;16.00;99.90;;;;;;5076878;28;20044;-83
2023/08/10 06:01:45;;;;;;;6.60;2.53;;;16.10;99.90;;;;;;5076560;28;20131;-84
2023/08/10 06:04:12;;;;;;;6.38;2.28;;;16.30;99.90;;;;;;5076455;28;20043;-83
2023/08/10 06:06:41;;;;;;;8.50;2.20;;;16.40;99.90;;;;;;5090981;28;20040;-82
2023/08/10 06:09:07;;;;;;;7.15;2.15;;;16.50;99.90;;;;;;5065558;28;20143;-81
2023/08/10 06:11:34;;;;;;;5.57;2.10;;;16.60;99.90;;;;;;5056843;28;20073;-82
2023/08/10 06:14:14;;;;;;;6.70;1.95;;;16.80;99.90;;;;;;5055365;28;20060;-81
2023/08/10 06:16:41;;;;;;;5.45;2.10;;;17.00;99.90;;;;;;5039711;28;20037;-84
2023/08/10 06:19:08;;;;;;;5.38;2.03;;;17.20;99.90;;;;;;5055421;28;20073;-83
2023/08/10 06:21:35;;;;;;;5.20;1.90;;;17.30;99.90;;;;;;5051572;28;20044;-83
2023/08/10 06:24:02;;;;;;;6.38;2.00;;;17.50;99.90;;;;;;5072828;28;20456;-84
2023/08/10 06:26:29;;;;;;;5.65;1.80;;;17.60;99.90;;;;;;5062373;28;20055;-83
2023/08/10 06:28:56;;;;;;;6.55;2.40;;;17.70;99.90;;;;;;5053244;28;20124;-83
2023/08/10 06:31:23;;;;;;;5.32;2.10;;;17.90;99.90;;;;;;5055583;28;20079;-84
2023/08/10 06:33:49;;;;;;;5.63;2.08;;;18.00;99.90;;;;;;5055530;28;20126;-83
2023/08/10 06:36:17;;;;;;;4.97;2.08;;;18.10;99.90;;;;;;5063915;28;20060;-83
2023/08/10 06:38:44;;;;;;;5.25;2.10;;;18.30;99.90;;;;;;5075621;28;20056;-81
2023/08/10 06:41:11;;;;;;;5.32;2.10;;;18.50;99.90;;;;;;5060947;28;20054;-81
2023/08/10 06:43:38;;;;;;;5.35;2.30;;;18.60;99.90;;;;;;5076647;28;20076;-81
2023/08/10 06:46:04;;;;;;;5.07;1.90;;;18.70;99.90;;;;;;5056363;28;20051;-81
2023/08/10 06:48:31;;;;;;;5.20;2.05;;;18.90;99.90;;;;;;5056336;28;20064;-82
2023/08/10 06:50:58;;;;;;;5.32;1.90;;;19.00;99.90;;;;;;5060705;28;20120;-81
2023/08/10 06:53:24;;;;;;;6.20;1.80;;;19.10;99.90;;;;;;5061521;28;20162;-81
2023/08/10 06:55:51;;;;;;;6.05;1.92;;;19.20;99.90;;;;;;5056392;28;20043;-82
2023/08/10 06:58:24;;;;;;;4.68;1.80;;;19.30;99.90;;;;;;5056752;28;20112;-81
2023/08/10 07:00:53;;;;;;;4.57;1.75;;;19.40;99.90;;;;;;5055588;28;20053;-82
2023/08/10 07:03:20;;;;;;;6.63;1.80;;;19.50;99.90;;;;;;5055719;28;20094;-81
2023/08/10 07:05:49;;;;;;;6.22;1.70;;;19.60;99.90;;;;;;5055375;28;20071;-82
2023/08/10 07:08:17;;;;;;;5.90;2.05;;;19.80;99.90;;;;;;5055291;28;20048;-81
2023/08/10 07:10:43;;;;;;;4.05;1.50;;;19.80;99.90;;;;;;5067241;28;20517;-82
2023/08/10 07:13:10;;;;;;;5.65;1.90;;;19.80;99.90;;;;;;5063822;28;20161;-81
2023/08/10 07:15:36;;;;;;;10.23;1.60;;;19.90;99.90;;;;;;5067826;28;20540;-81
2023/08/10 07:18:03;;;;;;;4.45;1.67;;;20.00;99.90;;;;;;5060721;28;20033;-82
2023/08/10 07:20:31;;;;;;;4.47;1.50;;;20.10;99.90;;;;;;5069608;28;20051;-81
2023/08/10 07:22:58;;;;;;;5.25;1.30;;;20.10;99.90;;;;;;5076361;28;20055;-81
2023/08/10 07:25:26;;;;;;;6.13;1.70;;;20.30;99.90;;;;;;5084054;28;20086;-81
2023/08/10 07:27:55;;;;;;;4.68;1.60;;;20.40;99.90;;;;;;5054951;28;20041;-80
2023/08/10 07:30:21;;;;;;;4.57;1.73;;;20.40;99.90;;;;;;5055903;28;20049;-82
2023/08/10 07:32:48;;;;;;;4.88;1.67;;;20.50;99.90;;;;;;5053579;28;20442;-82
2023/08/10 07:35:15;;;;;;;4.47;1.80;;;20.60;99.90;;;;;;5067916;28;20059;-80
2023/08/10 07:37:43;;;;;;;4.88;1.80;;;20.60;99.90;;;;;;5084231;28;20068;-82
2023/08/10 07:40:11;;;;;;;4.70;1.60;;;20.80;99.90;;;;;;5076070;28;20066;-82
2023/08/10 07:42:38;;;;;;;3.78;1.50;;;21.00;99.90;;;;;;5066261;28;20044;-84
2023/08/10 07:45:04;;;;;;;7.53;1.60;;;21.20;99.90;;;;;;5075873;28;20049;-84
2023/08/10 07:47:31;;;;;;;4.28;1.50;;;21.30;99.90;;;;;;5055052;28;20052;-84
2023/08/10 07:49:58;;;;;;;8.18;2.55;;;21.40;99.90;;;;;;5054540;28;20040;-82
2023/08/10 07:52:25;;;;;;;5.68;1.95;;;21.50;99.90;;;;;;5053552;28;20103;-84
2023/08/10 07:54:51;;;;;;;6.63;1.90;;;21.60;99.90;;;;;;5086495;28;20110;-80
2023/08/10 07:57:19;;;;;;;7.35;2.45;;;21.70;99.90;;;;;;5062608;28;20049;-82
2023/08/10 07:59:46;;;;;;;4.85;1.60;;;21.70;99.90;;;;;;5064458;28;20557;-86
2023/08/10 08:02:13;;;;;;;5.18;1.75;;;21.80;99.90;;;;;;5048843;28;20139;-85
2023/08/10 08:04:40;;;;;;;6.30;1.85;;;21.90;99.90;;;;;;5067640;28;20032;-88
2023/08/10 08:07:07;;;;;;;5.00;1.55;;;22.00;99.90;;;;;;5076138;28;20052;-87
2023/08/10 08:09:34;;;;;;;5.88;1.75;;;22.00;99.90;;;;;;5083668;28;20054;-85
2023/08/10 08:12:01;;;;;;;6.03;1.75;;;22.20;99.90;;;;;;5081840;28;20090;-84
2023/08/10 08:14:27;;;;;;;4.95;1.73;;;22.30;99.90;;;;;;5079137;28;20102;-87
2023/08/10 08:16:54;;;;;;;5.68;1.73;;;22.30;99.90;;;;;;5070920;28;20075;-85
2023/08/10 08:19:21;;;;;;;5.85;1.85;;;22.50;99.90;;;;;;5069869;28;20438;-88
2023/08/10 08:21:48;;;;;;;6.10;1.80;;;22.50;99.90;;;;;;5074329;28;20047;-87
2023/08/10 08:24:17;;;;;;;6.57;1.70;;;22.60;99.90;;;;;;5076070;28;20039;-87
2023/08/10 08:26:44;;;;;;;5.13;1.85;;;22.70;99.90;;;;;;5074571;28;20074;-89
2023/08/10 08:29:11;;;;;;;6.78;1.90;;;22.80;99.90;;;;;;5074676;28;20127;-87
2023/08/10 08:31:38;;;;;;;6.82;1.75;;;22.80;99.90;;;;;;5085308;28;20052;-84
2023/08/10 08:34:04;;;;;;;5.82;1.80;;;22.90;99.90;;;;;;5048653;28;20058;-85
2023/08/10 08:39:18;;;;;;;6.07;1.92;;;23.10;99.90;;;;;;5047780;28;20050;-86
2023/08/10 08:41:45;;;;;;;5.30;1.77;;;23.30;99.90;;;;;;5017909;28;20049;-86
2023/08/10 08:44:11;;;;;;;5.70;1.92;;;23.50;99.90;;;;;;5017295;28;20076;-87
2023/08/10 08:46:41;;;;;;;8.48;1.90;;;23.60;99.90;;;;;;5016688;28;20053;-85
2023/08/10 08:49:08;;;;;;;4.38;1.60;;;23.70;99.90;;;;;;5030125;28;20146;-85
2023/08/10 08:51:35;;;;;;;4.22;1.60;;;23.80;99.90;;;;;;5047731;28;20045;-87
2023/08/10 08:54:02;;;;;;;7.43;1.90;;;23.90;99.90;;;;;;5029964;28;20052;-85
2023/08/10 08:56:31;;;;;;;4.85;1.65;;;23.90;99.90;;;;;;5056796;28;20037;-85
2023/08/10 08:58:58;;;;;;;5.35;1.55;;;23.90;99.90;;;;;;5042239;28;20543;-84
2023/08/10 09:01:25;;;;;;;3.83;1.55;;;23.90;99.90;;;;;;5042019;28;20037;-86
2023/08/10 09:03:52;;;;;;;6.72;1.85;;;24.00;99.90;;;;;;5034009;28;20095;-84
2023/08/10 09:06:20;;;;;;;4.40;1.80;;;24.10;99.90;;;;;;5042191;28;20052;-84
2023/08/10 09:08:47;;;;;;;5.95;1.80;;;24.20;99.90;;;;;;5048328;28;20068;-86
2023/08/10 09:11:13;;;;;;;4.72;1.83;;;24.30;99.90;;;;;;5041351;28;20041;-87
2023/08/10 09:13:40;;;;;;;5.85;2.08;;;24.20;99.90;;;;;;5020391;28;20049;-87
2023/08/10 09:16:08;;;;;;;4.63;1.83;;;24.30;99.90;;;;;;5048056;28;20079;-86
2023/08/10 09:18:35;;;;;;;5.68;1.85;;;24.20;99.90;;;;;;5040965;28;20175;-86
2023/08/10 09:21:02;;;;;;;4.75;1.88;;;24.30;99.90;;;;;;5031833;28;20042;-87
2023/08/10 09:23:29;;;;;;;6.13;2.00;;;24.20;99.90;;;;;;5038322;28;20080;-87
2023/08/10 09:25:58;;;;;;;6.00;1.80;;;24.00;99.90;;;;;;5017900;28;20048;-83
2023/08/10 09:28:24;;;;;;;6.90;1.90;;;24.20;99.90;;;;;;5032946;28;20047;-88
2023/08/10 09:30:51;;;;;;;6.85;2.13;;;24.20;99.90;;;;;;5050106;28;20092;-86
2023/08/10 09:33:18;;;;;;;5.90;2.08;;;24.30;99.90;;;;;;5020106;28;20037;-87
2023/08/10 09:35:44;;;;;;;6.60;2.20;;;24.60;99.90;;;;;;5066393;28;20049;-85
2023/08/10 09:40:57;;;;;;;7.00;2.20;;;24.80;99.90;;;;;;5042319;28;20059;-86
2023/08/10 09:43:23;;;;;;;5.22;2.22;;;24.60;99.90;;;;;;5030091;28;20640;-86
2023/08/10 09:45:50;;;;;;;9.25;2.50;;;24.60;99.90;;;;;;5041278;28;20060;-87
2023/08/10 09:48:17;;;;;;;5.78;2.35;;;24.50;99.90;;;;;;5028664;28;20053;-85
2023/08/10 09:50:44;;;;;;;5.57;2.40;;;24.50;99.90;;;;;;5043276;28;20434;-85
2023/08/10 09:53:10;;;;;;;20.58;9.88;;;24.50;99.90;;;;;;5045827;28;20036;-86
2023/08/10 09:55:37;;;;;;;14.68;7.68;;;24.80;99.90;;;;;;5035760;28;20407;-84
2023/08/10 09:58:04;;;;;;;11.73;5.10;;;25.00;99.90;;;;;;5043430;28;20375;-86
2023/08/10 10:00:31;;;;;;;9.50;3.55;;;25.20;99.90;;;;;;5037729;28;20542;-83
2023/08/10 10:02:58;;;;;;;5.47;2.70;;;25.30;99.90;;;;;;5034121;28;20049;-85
2023/08/10 10:05:26;;;;;;;6.53;2.92;;;25.20;99.90;;;;;;5037286;28;20392;-88
2023/08/10 10:10:42;;;;;;;5.70;2.50;;;25.50;99.90;;;;;;5045135;28;20111;-85
2023/08/10 10:13:09;;;;;;;9.32;2.78;;;25.50;99.90;;;;;;5022327;28;20056;-84
2023/08/10 10:15:39;;;;;;;8.60;2.58;;;25.50;99.90;;;;;;5021221;28;20045;-88
2023/08/10 10:20:51;;;;;;;6.57;2.53;;;25.60;99.90;;;;;;5051650;28;20483;-87
2023/08/10 10:23:17;;;;;;;6.80;2.40;;;25.70;99.90;;;;;;5032644;28;20125;-87
2023/08/10 10:25:44;;;;;;;7.30;2.67;;;26.10;99.90;;;;;;5037682;28;20041;-86
2023/08/10 10:28:13;;;;;;;6.80;2.35;;;26.20;99.90;;;;;;5028958;28;20071;-85
2023/08/10 10:30:40;;;;;;;7.30;2.28;;;26.40;99.90;;;;;;5031219;28;20523;-85
2023/08/10 10:33:09;;;;;;;6.38;2.42;;;26.60;99.90;;;;;;5037140;28;20375;-84
2023/08/10 10:35:36;;;;;;;6.97;2.35;;;26.80;99.90;;;;;;5047505;28;20037;-83
2023/08/10 10:38:03;;;;;;;7.78;2.88;;;27.10;99.90;;;;;;5039573;28;20361;-87
2023/08/10 10:40:30;;;;;;;7.00;2.88;;;27.00;99.90;;;;;;5064826;28;20048;-86
2023/08/10 10:42:57;;;;;;;7.65;2.50;;;27.30;99.90;;;;;;5037606;28;20076;-85
2023/08/10 10:45:24;;;;;;;6.00;2.63;;;27.40;99.90;;;;;;5032079;28;20087;-86
2023/08/10 10:47:53;;;;;;;8.88;2.88;;;27.70;99.90;;;;;;5020393;28;20052;-87
2023/08/10 10:50:20;;;;;;;6.18;2.72;;;27.80;99.90;;;;;;5049884;28;20050;-88
2023/08/10 10:52:47;;;;;;;6.85;2.72;;;27.90;99.90;;;;;;5030453;28;20033;-84
2023/08/10 10:55:13;;;;;;;6.03;2.63;;;28.00;99.90;;;;;;5059742;28;20032;-86
2023/08/10 10:57:42;;;;;;;6.15;2.70;;;28.00;99.90;;;;;;5045291;28;20045;-84
2023/08/10 11:00:09;;;;;;;7.03;2.70;;;28.30;99.90;;;;;;5034586;28;20037;-85
2023/08/10 11:02:36;;;;;;;7.13;2.40;;;28.60;99.90;;;;;;5025423;28;20045;-85
2023/08/10 11:05:03;;;;;;;5.32;2.55;;;28.70;99.90;;;;;;5047955;28;20135;-88
2023/08/10 11:07:31;;;;;;;6.75;2.63;;;28.60;99.90;;;;;;5046360;28;20041;-86
2023/08/10 11:09:57;;;;;;;7.00;2.50;;;28.30;99.90;;;;;;5039415;28;20052;-84
2023/08/10 11:12:24;;;;;;;7.18;2.65;;;27.80;99.90;;;;;;5034910;28;20081;-86
2023/08/10 11:14:51;;;;;;;5.43;2.60;;;27.40;99.90;;;;;;5032774;28;20464;-84
2023/08/10 11:17:19;;;;;;;6.65;2.70;;;27.20;99.90;;;;;;5041964;28;20056;-85
2023/08/10 11:19:45;;;;;;;5.43;2.47;;;26.90;99.90;;;;;;5031365;28;20139;-83
2023/08/10 11:22:12;;;;;;;6.60;2.70;;;26.80;99.90;;;;;;5038743;28;20187;-84
2023/08/10 11:24:39;;;;;;;8.15;2.60;;;26.70;99.90;;;;;;5031363;28;20054;-84
2023/08/10 11:27:06;;;;;;;5.60;2.50;;;26.70;99.90;;;;;;5042853;28;20036;-87
2023/08/10 11:29:32;;;;;;;7.75;2.70;;;26.60;99.90;;;;;;5017250;28;20040;-86
2023/08/10 11:31:59;;;;;;;6.00;2.30;;;26.50;99.90;;;;;;5044258;28;20048;-83
2023/08/10 11:34:26;;;;;;;5.05;2.45;;;26.40;99.90;;;;;;5007763;28;20110;-86
2023/08/10 11:36:55;;;;;;;5.97;2.50;;;26.80;99.90;;;;;;5046774;28;20041;-86
2023/08/10 11:39:22;;;;;;;7.22;2.30;;;27.80;99.90;;;;;;5054694;28;20048;-84
2023/08/10 11:41:52;;;;;;;4.43;2.10;;;28.70;99.90;;;;;;5073305;28;20045;-86
2023/08/10 11:44:18;;;;;;;5.73;2.27;;;28.30;99.90;;;;;;5075473;28;20067;-86
2023/08/10 11:46:46;;;;;;;5.00;2.30;;;27.80;99.90;;;;;;5076009;28;20422;-86
2023/08/10 11:49:13;;;;;;;5.13;2.30;;;27.70;99.90;;;;;;5055001;28;20443;-87
2023/08/10 11:51:41;;;;;;;6.80;2.60;;;27.80;99.90;;;;;;5054771;28;20095;-87
2023/08/10 11:54:08;;;;;;;6.35;2.67;;;28.20;99.90;;;;;;5059830;28;20033;-87
2023/08/10 11:59:21;;;;;;;5.10;2.00;;;28.70;99.90;;;;;;5068729;28;20459;-84
2023/08/10 12:01:48;;;;;;;5.10;2.28;;;28.70;99.90;;;;;;5055484;28;20080;-85
2023/08/10 12:04:15;;;;;;;5.35;1.85;;;28.80;99.90;;;;;;5067044;28;20047;-86
2023/08/10 12:06:48;;;;;;;5.97;2.20;;;28.60;99.90;;;;;;5054883;28;20040;-84
2023/08/10 12:09:16;;;;;;;6.72;2.10;;;28.50;99.90;;;;;;5054155;28;20076;-87
2023/08/10 12:11:43;;;;;;;5.65;1.92;;;28.60;99.90;;;;;;5055498;28;20037;-86
2023/08/10 12:14:10;;;;;;;11.85;2.42;;;28.90;99.90;;;;;;5049120;28;20072;-84
2023/08/10 12:16:39;;;;;;;4.93;2.15;;;28.80;99.90;;;;;;5064583;28;20036;-84
2023/08/10 12:19:06;;;;;;;5.50;1.95;;;28.90;99.90;;;;;;5065953;28;20044;-86
2023/08/10 12:21:34;;;;;;;5.72;2.17;;;29.40;99.90;;;;;;5073341;28;20048;-83
2023/08/10 12:24:01;;;;;;;5.47;2.20;;;29.80;99.90;;;;;;5063161;28;20172;-86
2023/08/10 12:26:29;;;;;;;6.43;2.30;;;30.00;99.90;;;;;;5074914;28;20103;-85
2023/08/10 12:28:56;;;;;;;5.35;2.42;;;30.00;99.90;;;;;;5058034;28;20041;-85
2023/08/10 12:31:24;;;;;;;6.10;2.30;;;30.30;99.90;;;;;;5053865;28;20049;-85
2023/08/10 12:33:54;;;;;;;7.30;2.38;;;30.30;99.90;;;;;;5066935;28;20071;-84
2023/08/10 12:36:22;;;;;;;5.07;2.00;;;30.30;99.90;;;;;;5054054;28;20061;-86
2023/08/10 12:38:49;;;;;;;6.60;2.20;;;30.50;99.90;;;;;;5050869;28;20045;-85
2023/08/10 12:41:16;;;;;;;8.70;2.20;;;31.10;99.90;;;;;;5000327;28;20144;-88
2023/08/10 12:43:42;;;;;;;4.90;2.10;;;31.40;99.90;;;;;;5046891;28;20076;-84
2023/08/10 12:46:11;;;;;;;6.13;2.20;;;31.60;99.90;;;;;;5033557;28;20049;-86
2023/08/10 12:48:38;;;;;;;5.50;2.15;;;31.60;99.90;;;;;;5056822;28;20111;-84
2023/08/10 12:51:07;;;;;;;5.07;2.00;;;31.70;99.90;;;;;;5049364;28;20393;-90
2023/08/10 12:53:34;;;;;;;7.43;2.55;;;31.80;99.90;;;;;;5033770;28;20033;-84
2023/08/10 12:56:03;;;;;;;6.10;2.20;;;31.80;99.90;;;;;;5018157;28;20060;-85
2023/08/10 12:58:29;;;;;;;6.07;2.40;;;32.10;99.90;;;;;;5019169;28;20057;-82
2023/08/10 13:00:56;;;;;;;5.55;2.10;;;32.80;99.90;;;;;;5030583;28;20065;-82